createdAt,value
2022-11-12T00:00:52.428Z,5.50
2022-11-12T00:04:01.050Z,6.90
2022-11-12T00:07:09.396Z,4.80
2022-11-12T00:10:25.982Z,2.40
2022-11-12T00:13:34.242Z,1.90
2022-11-12T00:16:50.387Z,2.90
2022-11-12T00:20:00.085Z,2.60
2022-11-12T00:23:08.555Z,1.30
2022-11-12T00:26:16.974Z,1.10
2022-11-12T00:29:26.311Z,1.10
2022-11-12T00:32:37.021Z,0.50
2022-11-12T00:35:45.076Z,0.80
2022-11-12T00:38:54.362Z,0.40
2022-11-12T00:42:02.734Z,0.40
2022-11-12T00:45:11.938Z,0.40
2022-11-12T00:48:21.772Z,2.10
2022-11-12T00:51:32.939Z,1.00
2022-11-12T00:54:44.103Z,0.80
2022-11-12T00:57:52.473Z,0.60
2022-11-12T01:01:06.848Z,0.40
2022-11-12T01:04:15.641Z,0.50
2022-11-12T01:07:24.066Z,0.80
2022-11-12T01:10:35.025Z,1.00
2022-11-12T01:13:45.206Z,2.10
2022-11-12T01:16:53.678Z,1.80
2022-11-12T01:20:02.677Z,1.60
2022-11-12T01:23:11.257Z,1.90
2022-11-12T01:26:22.102Z,1.80
2022-11-12T01:29:39.274Z,2.00
2022-11-12T01:32:48.525Z,0.80
2022-11-12T01:36:04.736Z,3.10
2022-11-12T01:39:13.806Z,3.20
2022-11-12T01:42:24.622Z,2.40
2022-11-12T01:46:03.443Z,2.10
2022-11-12T01:49:53.198Z,3.90
2022-11-12T01:53:29.526Z,3.20
2022-11-12T01:57:22.950Z,2.60
2022-11-12T02:00:36.318Z,2.80
2022-11-12T02:03:47.371Z,2.90
2022-11-12T02:07:03.118Z,3.80
2022-11-12T02:10:30.141Z,4.70
2022-11-12T02:14:10.842Z,2.50
2022-11-12T02:18:03.960Z,4.00
2022-11-12T02:21:16.786Z,2.60
2022-11-12T02:24:39.453Z,5.10
2022-11-12T02:27:51.268Z,6.70
2022-11-12T02:30:59.481Z,4.10
2022-11-12T02:34:07.711Z,2.60
2022-11-12T02:37:16.955Z,3.40
2022-11-12T02:40:26.917Z,4.20
2022-11-12T02:43:39.208Z,3.00
2022-11-12T02:46:47.559Z,4.50
2022-11-12T02:49:56.015Z,3.90
2022-11-12T02:53:04.714Z,4.00
2022-11-12T02:56:12.957Z,5.80
2022-11-12T02:59:21.653Z,5.70
2022-11-12T03:02:34.524Z,5.50
2022-11-12T03:05:43.366Z,5.70
2022-11-12T03:09:03.099Z,5.20
2022-11-12T03:12:11.686Z,3.50
2022-11-12T03:15:20.538Z,4.30
2022-11-12T03:18:29.145Z,5.10
2022-11-12T03:21:37.838Z,4.90
2022-11-12T03:24:45.977Z,7.50
2022-11-12T03:28:01.442Z,3.40
2022-11-12T03:31:11.547Z,3.80
2022-11-12T03:34:19.850Z,4.50
2022-11-12T03:37:28.271Z,5.00
2022-11-12T03:40:37.743Z,7.10
2022-11-12T03:43:46.599Z,7.90
2022-11-12T03:46:54.903Z,6.00
2022-11-12T03:50:03.749Z,7.20
2022-11-12T03:53:12.168Z,6.70
2022-11-12T03:56:20.463Z,6.80
2022-11-12T03:59:28.536Z,6.00
2022-11-12T04:02:36.608Z,6.00
2022-11-12T04:06:03.334Z,7.10
2022-11-12T04:09:11.826Z,5.20
2022-11-12T04:12:38.410Z,7.80
2022-11-12T04:16:06.973Z,8.40
2022-11-12T04:19:33.682Z,8.30
2022-11-12T04:22:42.164Z,4.60
2022-11-12T04:26:08.410Z,7.30
2022-11-12T04:29:37.595Z,7.30
2022-11-12T04:32:49.687Z,7.20
2022-11-12T04:35:57.949Z,5.20
2022-11-12T04:39:06.247Z,6.50
2022-11-12T04:42:32.597Z,7.30
2022-11-12T04:45:43.015Z,8.20
2022-11-12T04:48:51.681Z,7.00
2022-11-12T04:52:05.746Z,7.30
2022-11-12T04:55:14.109Z,7.90
2022-11-12T04:58:23.170Z,8.70
2022-11-12T05:01:31.698Z,5.40
2022-11-12T05:04:39.980Z,6.10
2022-11-12T05:07:48.191Z,8.10
2022-11-12T05:10:56.564Z,8.20
2022-11-12T05:14:04.859Z,7.50
2022-11-12T05:17:13.244Z,7.30
2022-11-12T05:20:21.360Z,8.70
2022-11-12T05:23:29.683Z,7.20
2022-11-12T05:26:38.248Z,9.70
2022-11-12T05:29:46.687Z,5.00
2022-11-12T05:32:54.936Z,6.70
2022-11-12T05:36:04.003Z,7.10
2022-11-12T05:39:26.684Z,7.90
2022-11-12T05:42:36.774Z,9.30
2022-11-12T05:45:48.877Z,8.10
2022-11-12T05:48:58.910Z,6.90
2022-11-12T05:52:11.601Z,5.60
2022-11-12T05:55:21.403Z,8.90
2022-11-12T05:58:34.536Z,7.30
2022-11-12T06:01:49.023Z,6.40
2022-11-12T06:04:57.719Z,8.40
2022-11-12T06:08:07.910Z,10.50
2022-11-12T06:11:19.212Z,9.70
2022-11-12T06:14:29.237Z,7.30
2022-11-12T06:17:39.031Z,6.40
2022-11-12T06:21:08.374Z,6.50
2022-11-12T06:24:17.048Z,7.20
2022-11-12T06:27:25.518Z,8.60
2022-11-12T06:30:33.716Z,8.40
2022-11-12T06:33:42.175Z,4.80
2022-11-12T06:36:50.606Z,4.40
2022-11-12T06:39:58.803Z,3.20
2022-11-12T06:43:07.217Z,4.70
2022-11-12T06:46:17.114Z,3.00
2022-11-12T06:49:25.482Z,3.40
2022-11-12T06:52:33.643Z,3.10
2022-11-12T06:55:41.803Z,2.60
2022-11-12T06:58:50.227Z,4.00
2022-11-12T07:01:58.617Z,3.60
2022-11-12T07:05:08.000Z,5.20
2022-11-12T07:08:16.233Z,4.10
2022-11-12T07:11:24.679Z,6.60
2022-11-12T07:14:32.956Z,5.30
2022-11-12T07:17:44.639Z,4.50
2022-11-12T07:21:09.776Z,4.10
2022-11-12T07:24:18.314Z,6.40
2022-11-12T07:28:01.710Z,5.00
2022-11-12T07:31:33.119Z,5.70
2022-11-12T07:35:37.745Z,4.20
2022-11-12T07:39:11.315Z,5.70
2022-11-12T07:42:20.761Z,6.40
2022-11-12T07:45:30.032Z,5.00
2022-11-12T07:48:41.883Z,8.90
2022-11-12T07:51:51.996Z,9.20
2022-11-12T07:55:04.486Z,6.90
2022-11-12T07:58:15.872Z,7.60
2022-11-12T08:01:29.083Z,7.10
2022-11-12T08:04:37.526Z,9.80
2022-11-12T08:07:46.033Z,7.60
2022-11-12T08:10:56.980Z,11.20
2022-11-12T08:14:06.092Z,15.00
2022-11-12T08:17:15.712Z,9.70
2022-11-12T08:20:24.000Z,13.20
2022-11-12T08:23:33.215Z,7.30
2022-11-12T08:26:41.554Z,8.40
2022-11-12T08:29:49.743Z,9.20
2022-11-12T08:33:02.834Z,8.40
2022-11-12T08:36:13.962Z,7.70
2022-11-12T08:39:22.603Z,7.70
2022-11-12T08:42:31.418Z,5.20
2022-11-12T08:45:41.998Z,7.70
2022-11-12T08:51:57.963Z,11.10
2022-11-12T08:55:09.723Z,10.90
2022-11-12T08:58:18.131Z,10.60
2022-11-12T09:01:26.350Z,8.10
2022-11-12T09:04:38.575Z,6.20
2022-11-12T09:07:51.090Z,8.30
2022-11-12T09:10:59.810Z,10.30
2022-11-12T09:14:08.043Z,14.30
2022-11-12T09:17:17.940Z,9.20
2022-11-12T09:20:27.751Z,12.60
2022-11-12T09:23:36.603Z,11.70
2022-11-12T09:26:44.612Z,11.40
2022-11-12T09:29:53.277Z,13.10
2022-11-12T09:33:01.762Z,8.60
2022-11-12T09:36:10.840Z,10.80
2022-11-12T09:39:18.648Z,8.70
2022-11-12T09:42:27.593Z,9.20
2022-11-12T09:45:36.874Z,11.60
2022-11-12T09:48:49.520Z,9.40
2022-11-12T09:52:04.364Z,7.50
2022-11-12T09:55:21.546Z,11.20
2022-11-12T09:58:30.251Z,11.20
2022-11-12T10:01:49.932Z,8.20
2022-11-12T10:05:12.422Z,9.20
2022-11-12T10:08:35.064Z,10.70
2022-11-12T10:12:19.973Z,10.80
2022-11-12T10:15:58.462Z,8.90
2022-11-12T10:19:23.711Z,12.00
2022-11-12T10:22:47.774Z,9.70
2022-11-12T10:25:59.921Z,9.90
2022-11-12T10:29:25.820Z,9.00
2022-11-12T10:32:36.704Z,11.50
2022-11-12T10:35:47.720Z,13.30
2022-11-12T10:38:56.430Z,7.60
2022-11-12T10:42:07.563Z,9.50
2022-11-12T10:45:21.695Z,6.90
2022-11-12T10:48:33.213Z,10.60
2022-11-12T10:51:56.690Z,6.40
2022-11-12T10:55:14.389Z,9.00
2022-11-12T10:58:29.759Z,7.50
2022-11-12T11:01:43.004Z,8.20
2022-11-12T11:04:53.542Z,8.70
2022-11-12T11:08:02.119Z,11.90
2022-11-12T11:11:29.016Z,12.40
2022-11-12T11:14:46.045Z,9.80
2022-11-12T11:18:05.570Z,7.70
2022-11-12T11:21:43.418Z,9.60
2022-11-12T11:25:07.520Z,10.40
2022-11-12T11:28:23.121Z,7.80
2022-11-12T11:31:41.543Z,8.10
2022-11-12T11:34:58.025Z,12.10
2022-11-12T11:38:21.606Z,10.30
2022-11-12T11:41:40.832Z,8.70
2022-11-12T11:44:59.123Z,9.40
2022-11-12T11:48:17.489Z,9.50
2022-11-12T11:51:40.369Z,11.70
2022-11-12T11:55:04.983Z,9.20
2022-11-12T11:58:35.984Z,11.40
2022-11-12T12:02:02.138Z,10.50
2022-11-12T12:05:29.172Z,11.40
2022-11-12T12:08:52.493Z,10.90
2022-11-12T12:12:09.769Z,7.40
2022-11-12T12:15:42.002Z,8.90
2022-11-12T12:18:59.382Z,9.00
2022-11-12T12:22:14.253Z,8.20
2022-11-12T12:25:27.554Z,8.70
2022-11-12T12:28:44.350Z,7.60
2022-11-12T12:31:57.069Z,9.40
2022-11-12T12:35:17.304Z,9.60
2022-11-12T12:41:49.162Z,10.30
2022-11-12T12:45:23.472Z,7.70
2022-11-12T12:48:34.927Z,7.60
2022-11-12T12:51:43.844Z,10.40
2022-11-12T12:54:59.939Z,7.00
2022-11-12T12:58:19.641Z,5.90
2022-11-12T13:01:34.359Z,6.30
2022-11-12T13:04:55.649Z,6.50
2022-11-12T13:08:09.515Z,4.40
2022-11-12T13:12:07.937Z,6.40
2022-11-12T13:19:45.333Z,4.90
2022-11-12T13:23:01.591Z,7.00
2022-11-12T13:26:51.904Z,7.80
2022-11-12T13:33:24.515Z,7.40
2022-11-12T13:36:32.819Z,13.10
2022-11-12T13:39:40.998Z,9.50
2022-11-12T13:42:49.429Z,9.20
2022-11-12T13:46:03.793Z,8.90
2022-11-12T13:49:15.159Z,8.10
2022-11-12T13:52:23.931Z,10.40
2022-11-12T13:55:32.135Z,9.40
2022-11-12T13:58:40.220Z,10.70
2022-11-12T14:01:49.906Z,14.10
2022-11-12T14:04:58.296Z,11.10
2022-11-12T14:08:49.403Z,12.00
2022-11-12T14:12:20.529Z,11.50
2022-11-12T14:15:53.058Z,12.20
2022-11-12T14:19:20.655Z,14.50
2022-11-12T14:22:38.310Z,13.80
2022-11-12T14:25:51.206Z,10.00
2022-11-12T14:29:00.129Z,12.00
2022-11-12T14:32:10.331Z,12.70
2022-11-12T14:35:36.261Z,11.10
2022-11-12T14:38:47.958Z,14.80
2022-11-12T14:41:58.278Z,16.90
2022-11-12T14:45:16.927Z,9.60
2022-11-12T14:48:25.490Z,9.30
2022-11-12T14:51:40.918Z,11.10
2022-11-12T14:54:54.338Z,13.20
2022-11-12T14:58:03.700Z,12.30
2022-11-12T15:02:08.432Z,14.80
2022-11-12T15:04:55.240Z,13.50
2022-11-12T15:08:04.929Z,11.70
2022-11-12T15:11:26.804Z,12.60
2022-11-12T15:14:35.706Z,15.70
2022-11-12T15:17:44.427Z,11.00
2022-11-12T15:21:09.826Z,10.60
2022-11-12T15:24:27.211Z,10.60
2022-11-12T15:27:37.879Z,12.10
2022-11-12T15:31:01.479Z,10.30
2022-11-12T15:34:47.510Z,12.40
2022-11-12T15:37:55.955Z,9.60
2022-11-12T15:41:04.714Z,9.80
2022-11-12T15:44:13.229Z,10.00
2022-11-12T15:47:22.717Z,10.80
2022-11-12T15:50:32.111Z,10.40
2022-11-12T15:53:40.713Z,9.00
2022-11-12T15:56:50.123Z,12.80
2022-11-12T16:00:08.103Z,13.70
2022-11-12T16:03:18.888Z,12.20
2022-11-12T16:06:27.451Z,11.10
2022-11-12T16:09:35.702Z,12.10
2022-11-12T16:12:45.317Z,12.30
2022-11-12T16:15:54.921Z,11.20
2022-11-12T16:19:02.746Z,10.40
2022-11-12T16:22:12.370Z,12.90
2022-11-12T16:25:21.818Z,12.20
2022-11-12T16:28:29.691Z,10.80
2022-11-12T16:31:37.777Z,10.70
2022-11-12T16:34:45.717Z,11.40
2022-11-12T16:37:55.188Z,15.80
2022-11-12T16:41:03.001Z,11.50
2022-11-12T16:44:11.167Z,12.90
2022-11-12T16:47:19.420Z,10.30
2022-11-12T16:50:29.275Z,13.70
2022-11-12T16:53:37.239Z,16.80
2022-11-12T16:56:45.797Z,12.30
2022-11-12T16:59:54.225Z,13.80
2022-11-12T17:03:02.649Z,11.20
2022-11-12T17:06:11.044Z,9.90
2022-11-12T17:09:19.131Z,12.40
2022-11-12T17:12:27.587Z,16.10
2022-11-12T17:15:35.431Z,14.30
2022-11-12T17:18:43.348Z,19.20
2022-11-12T17:21:51.666Z,13.80
2022-11-12T17:24:59.769Z,15.80
2022-11-12T17:28:07.938Z,16.90
2022-11-12T17:31:17.684Z,11.90
2022-11-12T17:34:25.968Z,12.90
2022-11-12T17:37:34.116Z,14.40
2022-11-12T17:40:42.225Z,18.00
2022-11-12T17:43:55.034Z,14.00
2022-11-12T17:47:03.473Z,15.70
2022-11-12T17:50:11.598Z,14.90
2022-11-12T17:53:20.544Z,17.40
2022-11-12T17:56:33.011Z,23.10
2022-11-12T17:59:44.218Z,20.30
2022-11-12T18:02:52.343Z,14.30
2022-11-12T18:06:00.994Z,14.30
2022-11-12T18:09:14.734Z,16.40
2022-11-12T18:12:23.353Z,18.60
2022-11-12T18:15:32.394Z,16.70
2022-11-12T18:18:40.650Z,17.70
2022-11-12T18:21:48.981Z,16.80
2022-11-12T18:24:57.703Z,16.30
2022-11-12T18:28:06.790Z,18.70
2022-11-12T18:31:14.996Z,18.50
2022-11-12T18:34:23.008Z,18.50
2022-11-12T18:37:31.269Z,15.90
2022-11-12T18:40:39.346Z,18.10
2022-11-12T18:43:47.813Z,15.60
2022-11-12T18:46:56.332Z,15.20
2022-11-12T18:50:08.761Z,14.60
2022-11-12T18:53:17.242Z,14.10
2022-11-12T18:56:25.379Z,16.10
2022-11-12T18:59:33.602Z,14.20
2022-11-12T19:02:42.632Z,14.50
2022-11-12T19:05:57.037Z,14.60
2022-11-12T19:09:05.512Z,18.60
2022-11-12T19:12:13.800Z,15.90
2022-11-12T19:15:26.544Z,15.60
2022-11-12T19:18:35.729Z,14.30
2022-11-12T19:21:44.304Z,14.30
2022-11-12T19:24:52.702Z,15.60
2022-11-12T19:28:00.762Z,16.40
2022-11-12T19:31:13.188Z,13.90
2022-11-12T19:34:21.070Z,16.40
2022-11-12T19:37:33.928Z,15.70
2022-11-12T19:40:42.538Z,20.60
2022-11-12T19:43:50.987Z,15.50
2022-11-12T19:46:59.552Z,16.00
2022-11-12T19:50:09.358Z,15.70
2022-11-12T19:53:17.701Z,15.70
2022-11-12T19:56:27.145Z,16.50
2022-11-12T19:59:36.052Z,16.80
2022-11-12T20:02:44.439Z,17.70
2022-11-12T20:05:52.981Z,18.20
2022-11-12T20:09:02.628Z,15.90
2022-11-12T20:12:11.172Z,18.20
2022-11-12T20:15:19.592Z,15.30
2022-11-12T20:18:28.155Z,18.80
2022-11-12T20:21:36.870Z,14.60
2022-11-12T20:24:44.981Z,18.20
2022-11-12T20:27:52.872Z,17.60
2022-11-12T20:31:02.739Z,15.00
2022-11-12T20:34:12.276Z,15.70
2022-11-12T20:37:22.082Z,20.00
2022-11-12T20:40:30.569Z,17.40
2022-11-12T20:43:38.721Z,22.30
2022-11-12T20:46:46.805Z,20.80
2022-11-12T20:49:54.973Z,17.30
2022-11-12T20:53:03.269Z,17.10
2022-11-12T20:56:13.247Z,19.20
2022-11-12T20:59:21.433Z,19.50
2022-11-12T21:02:29.591Z,17.90
2022-11-12T21:05:38.056Z,20.50
2022-11-12T21:08:46.417Z,20.60
2022-11-12T21:11:54.920Z,20.80
2022-11-12T21:15:03.879Z,25.40
2022-11-12T21:18:12.524Z,24.10
2022-11-12T21:21:20.946Z,28.50
2022-11-12T21:24:29.566Z,24.30
2022-11-12T21:27:39.168Z,22.60
2022-11-12T21:30:47.496Z,28.60
2022-11-12T21:33:59.664Z,35.90
2022-11-12T21:37:07.872Z,30.10
2022-11-12T21:40:17.540Z,25.90
2022-11-12T21:43:26.068Z,25.70
2022-11-12T21:46:35.363Z,27.00
2022-11-12T21:49:43.589Z,21.40
2022-11-12T21:52:51.978Z,33.20
2022-11-12T21:56:05.099Z,24.60
2022-11-12T21:59:13.393Z,25.50
2022-11-12T22:02:21.315Z,23.00
2022-11-12T22:05:29.373Z,26.30
2022-11-12T22:08:38.159Z,25.80
2022-11-12T22:11:46.378Z,20.90
2022-11-12T22:14:54.875Z,21.40
2022-11-12T22:18:03.206Z,17.10
2022-11-12T22:21:14.737Z,16.70
2022-11-12T22:24:22.890Z,18.50
2022-11-12T22:27:33.301Z,17.60
2022-11-12T22:30:41.943Z,18.10
2022-11-12T22:33:50.763Z,17.50
2022-11-12T22:36:58.825Z,19.20
2022-11-12T22:40:13.403Z,18.60
2022-11-12T22:43:21.929Z,17.50
2022-11-12T22:46:32.993Z,16.60
2022-11-12T22:49:41.115Z,18.00
2022-11-12T22:52:50.334Z,16.40
2022-11-12T22:56:03.228Z,19.90
2022-11-12T22:59:12.037Z,15.50
2022-11-12T23:02:20.176Z,23.00
2022-11-12T23:05:28.423Z,19.60
2022-11-12T23:08:36.896Z,16.80
2022-11-12T23:11:45.260Z,18.10
2022-11-12T23:14:53.387Z,14.10
2022-11-12T23:18:01.551Z,14.50
2022-11-12T23:21:13.087Z,12.70
2022-11-12T23:24:21.489Z,13.10
2022-11-12T23:27:29.977Z,16.90
2022-11-12T23:30:38.378Z,16.60
2022-11-12T23:33:47.080Z,20.60
2022-11-12T23:36:55.220Z,18.10
2022-11-12T23:40:03.749Z,14.90
2022-11-12T23:43:12.043Z,16.50
2022-11-12T23:46:20.762Z,16.20
2022-11-12T23:49:29.164Z,16.10
2022-11-12T23:52:37.241Z,15.20
2022-11-12T23:55:45.449Z,14.80
2022-11-12T23:58:55.122Z,12.10
